createdAt,value
2022-11-26T00:01:30.840Z,1.27
2022-11-26T00:04:03.488Z,1.92
2022-11-26T00:06:38.453Z,1.92
2022-11-26T00:09:15.889Z,1.45
2022-11-26T00:11:45.769Z,1.52
2022-11-26T00:14:17.007Z,1.40
2022-11-26T00:16:46.935Z,1.83
2022-11-26T00:19:16.411Z,1.42
2022-11-26T00:21:45.787Z,1.15
2022-11-26T00:24:28.770Z,2.65
2022-11-26T00:27:00.685Z,4.90
2022-11-26T00:29:30.158Z,4.38
2022-11-26T00:31:59.832Z,2.78
2022-11-26T00:34:29.107Z,2.58
2022-11-26T00:36:58.583Z,2.35
2022-11-26T00:39:29.503Z,2.75
2022-11-26T00:41:58.880Z,2.60
2022-11-26T00:44:28.518Z,2.83
2022-11-26T00:46:58.033Z,2.20
2022-11-26T00:51:03.599Z,5.40
2022-11-26T00:53:33.114Z,9.43
2022-11-26T00:56:02.545Z,3.50
2022-11-26T00:58:33.402Z,2.78
2022-11-26T01:01:02.906Z,3.25
2022-11-26T01:03:32.332Z,5.57
2022-11-26T01:06:03.323Z,7.38
2022-11-26T01:08:36.273Z,5.28
2022-11-26T01:13:36.780Z,2.97
2022-11-26T01:16:20.844Z,2.90
2022-11-26T01:18:51.574Z,3.30
2022-11-26T01:21:23.306Z,4.03
2022-11-26T01:23:52.757Z,3.05
2022-11-26T01:26:25.486Z,3.58
2022-11-26T01:28:55.123Z,4.70
2022-11-26T01:31:28.402Z,4.95
2022-11-26T01:33:58.622Z,3.90
2022-11-26T01:36:33.110Z,1.80
2022-11-26T01:39:06.365Z,1.67
2022-11-26T01:41:46.453Z,2.35
2022-11-26T01:44:22.237Z,2.20
2022-11-26T01:46:53.127Z,2.20
2022-11-26T01:49:27.229Z,2.58
2022-11-26T01:52:06.834Z,3.00
2022-11-26T01:54:39.520Z,2.15
2022-11-26T01:59:44.816Z,4.72
2022-11-26T02:02:14.712Z,3.63
2022-11-26T02:04:52.247Z,2.95
2022-11-26T02:07:23.270Z,3.58
2022-11-26T02:09:53.012Z,3.53
2022-11-26T02:12:22.531Z,3.85
2022-11-26T02:14:51.980Z,1.88
2022-11-26T02:17:29.101Z,2.00
2022-11-26T02:20:42.960Z,2.15
2022-11-26T02:26:39.450Z,1.45
2022-11-26T02:29:21.833Z,1.85
2022-11-26T02:31:58.120Z,1.40
2022-11-26T02:34:38.119Z,1.88
2022-11-26T02:37:16.866Z,2.08
2022-11-26T02:39:46.453Z,1.55
2022-11-26T02:42:27.649Z,0.77
2022-11-26T02:44:59.662Z,0.85
2022-11-26T02:47:31.933Z,0.50
2022-11-26T02:50:12.013Z,1.63
2022-11-26T02:52:44.154Z,1.60
2022-11-26T02:55:18.689Z,1.03
2022-11-26T02:57:52.177Z,0.63
2022-11-26T03:00:22.907Z,0.50
2022-11-26T03:03:00.020Z,1.20
2022-11-26T03:05:34.292Z,1.60
2022-11-26T03:08:05.574Z,1.25
2022-11-26T03:10:35.890Z,0.98
2022-11-26T03:13:05.284Z,1.20
2022-11-26T03:15:34.788Z,1.40
2022-11-26T03:18:05.851Z,1.35
2022-11-26T03:20:35.231Z,0.85
2022-11-26T03:23:04.995Z,0.55
2022-11-26T03:25:34.991Z,0.55
2022-11-26T03:28:04.746Z,0.75
2022-11-26T03:30:34.442Z,0.60
2022-11-26T03:33:05.341Z,0.47
2022-11-26T03:35:34.706Z,1.17
2022-11-26T03:38:04.056Z,0.63
2022-11-26T03:40:33.437Z,0.55
2022-11-26T03:43:02.934Z,0.73
2022-11-26T03:45:32.471Z,0.68
2022-11-26T03:48:01.830Z,0.35
2022-11-26T03:52:03.689Z,0.40
2022-11-26T03:54:33.234Z,0.40
2022-11-26T03:57:02.663Z,0.55
2022-11-26T03:59:32.294Z,0.40
2022-11-26T04:02:01.787Z,0.30
2022-11-26T04:04:31.230Z,0.38
2022-11-26T04:07:02.372Z,0.22
2022-11-26T04:09:31.972Z,0.60
2022-11-26T04:12:01.332Z,0.82
2022-11-26T04:14:30.915Z,0.82
2022-11-26T04:17:00.365Z,0.50
2022-11-26T04:19:30.684Z,0.98
2022-11-26T04:22:00.069Z,0.52
2022-11-26T04:24:31.227Z,0.63
2022-11-26T04:27:00.714Z,0.45
2022-11-26T04:29:29.994Z,1.02
2022-11-26T04:31:59.440Z,2.15
2022-11-26T04:34:28.878Z,1.40
2022-11-26T04:36:58.297Z,1.27
2022-11-26T04:39:27.613Z,0.90
2022-11-26T04:41:58.425Z,0.88
2022-11-26T04:44:27.953Z,0.98
2022-11-26T04:46:57.294Z,1.63
2022-11-26T04:49:26.991Z,1.83
2022-11-26T04:51:56.357Z,2.83
2022-11-26T04:54:25.807Z,1.75
2022-11-26T04:56:56.774Z,2.03
2022-11-26T04:59:26.213Z,2.25
2022-11-26T05:01:55.566Z,3.03
2022-11-26T05:04:25.084Z,3.28
2022-11-26T05:06:54.915Z,4.32
2022-11-26T05:09:24.354Z,5.35
2022-11-26T05:11:53.828Z,3.55
2022-11-26T05:14:25.129Z,4.38
2022-11-26T05:16:54.717Z,2.08
2022-11-26T05:19:24.372Z,5.13
2022-11-26T05:21:53.725Z,3.90
2022-11-26T05:24:23.338Z,3.97
2022-11-26T05:26:56.881Z,3.95
2022-11-26T05:29:28.566Z,3.28
2022-11-26T05:31:57.978Z,3.72
2022-11-26T05:34:27.467Z,3.53
2022-11-26T05:36:56.895Z,3.50
2022-11-26T05:39:26.568Z,2.80
2022-11-26T05:41:55.929Z,4.68
2022-11-26T05:44:26.935Z,3.67
2022-11-26T05:46:56.309Z,4.38
2022-11-26T05:49:25.812Z,4.13
2022-11-26T05:51:55.315Z,2.33
2022-11-26T05:54:25.127Z,5.15
2022-11-26T05:56:59.881Z,6.75
2022-11-26T05:59:32.114Z,4.32
2022-11-26T06:02:01.943Z,5.40
2022-11-26T06:04:31.751Z,5.32
2022-11-26T06:07:01.413Z,3.47
2022-11-26T06:09:30.830Z,2.25
2022-11-26T06:12:00.154Z,2.60
2022-11-26T06:14:30.961Z,1.77
2022-11-26T06:17:00.428Z,0.98
2022-11-26T06:19:29.968Z,1.17
2022-11-26T06:21:59.365Z,1.98
2022-11-26T06:24:28.738Z,2.35
2022-11-26T06:26:57.985Z,1.77
2022-11-26T06:29:28.404Z,1.23
2022-11-26T06:31:59.296Z,1.65
2022-11-26T06:34:28.819Z,1.02
2022-11-26T06:36:58.098Z,2.05
2022-11-26T06:39:27.486Z,7.70
2022-11-26T06:41:56.920Z,5.35
2022-11-26T06:44:26.233Z,3.70
2022-11-26T06:46:55.552Z,9.63
2022-11-26T06:52:03.727Z,8.98
2022-11-26T06:54:33.496Z,11.75
2022-11-26T06:57:02.769Z,6.97
2022-11-26T06:59:33.022Z,10.30
2022-11-26T07:02:02.513Z,8.75
2022-11-26T07:04:32.112Z,8.77
2022-11-26T07:07:03.040Z,11.20
2022-11-26T07:09:32.578Z,5.68
2022-11-26T07:12:02.048Z,4.88
2022-11-26T07:14:32.112Z,2.58
2022-11-26T07:17:01.451Z,3.35
2022-11-26T07:19:31.018Z,5.68
2022-11-26T07:22:03.055Z,6.22
2022-11-26T07:24:32.565Z,5.87
2022-11-26T07:27:01.907Z,2.90
2022-11-26T07:29:31.608Z,3.90
2022-11-26T07:32:01.201Z,2.35
2022-11-26T07:34:30.563Z,0.82
2022-11-26T07:37:01.426Z,0.70
2022-11-26T07:39:31.153Z,0.40
2022-11-26T07:42:00.533Z,0.50
2022-11-26T07:44:29.984Z,0.40
2022-11-26T07:46:59.352Z,1.20
2022-11-26T07:49:29.023Z,0.60
2022-11-26T07:51:58.620Z,0.60
2022-11-26T07:54:29.466Z,0.20
2022-11-26T07:56:59.055Z,0.32
2022-11-26T07:59:28.425Z,0.47
2022-11-26T08:01:57.879Z,0.35
2022-11-26T08:04:27.609Z,0.28
2022-11-26T08:06:56.980Z,0.57
2022-11-26T08:09:27.912Z,0.22
2022-11-26T08:11:57.498Z,0.43
2022-11-26T08:14:26.878Z,0.22
2022-11-26T08:16:57.395Z,0.65
2022-11-26T08:19:28.223Z,0.38
2022-11-26T08:21:57.770Z,0.20
2022-11-26T08:24:28.603Z,0.68
2022-11-26T08:26:59.669Z,0.40
2022-11-26T08:29:29.698Z,0.98
2022-11-26T08:31:59.206Z,0.30
2022-11-26T08:34:28.680Z,0.40
2022-11-26T08:36:58.270Z,0.32
2022-11-26T08:39:29.399Z,0.65
2022-11-26T08:41:59.207Z,0.63
2022-11-26T08:44:28.629Z,0.20
2022-11-26T08:46:58.016Z,0.20
2022-11-26T08:49:27.683Z,0.43
2022-11-26T08:51:58.251Z,0.90
2022-11-26T08:54:29.393Z,0.68
2022-11-26T08:56:58.850Z,0.20
2022-11-26T08:59:28.189Z,0.40
2022-11-26T09:01:57.615Z,0.40
2022-11-26T09:04:27.109Z,0.40
2022-11-26T09:06:56.458Z,0.47
2022-11-26T09:09:27.518Z,0.40
2022-11-26T09:12:02.300Z,0.30
2022-11-26T09:14:38.251Z,0.20
2022-11-26T09:17:10.114Z,0.38
2022-11-26T09:19:39.630Z,0.25
2022-11-26T09:22:09.068Z,0.30
2022-11-26T09:24:40.151Z,0.30
2022-11-26T09:27:12.376Z,0.70
2022-11-26T09:29:41.725Z,0.50
2022-11-26T09:32:31.204Z,0.55
2022-11-26T09:35:00.716Z,0.68
2022-11-26T09:37:30.151Z,0.40
2022-11-26T09:40:01.042Z,0.30
2022-11-26T09:42:47.744Z,0.30
2022-11-26T09:45:35.392Z,0.57
2022-11-26T09:48:06.444Z,0.43
2022-11-26T09:52:05.875Z,0.40
2022-11-26T09:54:35.719Z,0.40
2022-11-26T09:57:20.062Z,0.70
2022-11-26T09:59:51.915Z,0.70
2022-11-26T10:02:21.533Z,0.83
2022-11-26T10:04:51.592Z,0.38
2022-11-26T10:07:48.478Z,0.30
2022-11-26T10:10:25.551Z,0.40
2022-11-26T10:13:19.191Z,0.55
2022-11-26T10:16:01.286Z,0.60
2022-11-26T10:18:42.426Z,0.28
2022-11-26T10:21:32.335Z,0.28
2022-11-26T10:24:22.132Z,0.63
2022-11-26T10:26:53.073Z,0.30
2022-11-26T10:29:26.941Z,0.45
2022-11-26T10:32:01.627Z,0.43
2022-11-26T10:34:40.764Z,0.20
2022-11-26T10:37:10.892Z,0.45
2022-11-26T10:39:41.842Z,0.50
2022-11-26T10:42:20.447Z,0.30
2022-11-26T10:44:51.489Z,0.40
2022-11-26T10:47:25.501Z,0.50
2022-11-26T10:49:57.193Z,0.85
2022-11-26T10:52:30.651Z,0.45
2022-11-26T10:55:23.044Z,0.50
2022-11-26T10:57:57.155Z,0.40
2022-11-26T11:00:37.646Z,0.45
2022-11-26T11:03:18.020Z,0.50
2022-11-26T11:05:47.752Z,0.80
2022-11-26T11:08:30.343Z,0.20
2022-11-26T11:11:03.974Z,0.35
2022-11-26T11:13:43.884Z,0.45
2022-11-26T11:16:14.659Z,0.30
2022-11-26T11:18:52.954Z,0.30
2022-11-26T11:21:23.161Z,0.30
2022-11-26T11:24:08.150Z,0.80
2022-11-26T11:26:46.112Z,0.43
2022-11-26T11:29:35.031Z,0.30
2022-11-26T11:32:07.834Z,0.40
2022-11-26T11:37:18.155Z,0.40
2022-11-26T11:39:47.506Z,1.35
2022-11-26T11:42:29.443Z,52.03
2022-11-26T11:45:00.343Z,12.65
2022-11-26T11:47:38.610Z,3.28
2022-11-26T11:50:22.298Z,0.40
2022-11-26T11:53:05.781Z,0.40
2022-11-26T11:56:01.030Z,4.55
2022-11-26T11:59:02.294Z,0.50
2022-11-26T12:01:56.702Z,0.30
2022-11-26T12:04:45.348Z,0.28
2022-11-26T12:07:38.788Z,0.30
2022-11-26T12:10:15.379Z,0.40
2022-11-26T12:12:49.362Z,0.25
2022-11-26T12:15:28.276Z,0.30
2022-11-26T12:18:05.004Z,0.43
2022-11-26T12:20:40.768Z,0.60
2022-11-26T12:23:27.805Z,0.40
2022-11-26T12:26:06.531Z,0.40
2022-11-26T12:28:44.778Z,0.20
2022-11-26T12:31:27.119Z,0.30
2022-11-26T12:34:08.357Z,0.50
2022-11-26T12:36:47.192Z,0.35
2022-11-26T12:39:27.128Z,0.63
2022-11-26T12:42:04.382Z,0.30
2022-11-26T12:44:39.379Z,0.25
2022-11-26T12:47:21.251Z,0.28
2022-11-26T12:52:18.091Z,0.20
2022-11-26T12:54:56.328Z,0.20
2022-11-26T12:57:31.191Z,0.40
2022-11-26T13:00:07.108Z,0.30
2022-11-26T13:02:40.627Z,0.60
2022-11-26T13:05:18.591Z,0.40
2022-11-26T13:08:15.698Z,0.30
2022-11-26T13:11:10.548Z,0.20
2022-11-26T13:13:49.422Z,5.00
2022-11-26T13:16:35.053Z,20.17
2022-11-26T13:19:11.798Z,5.53
2022-11-26T13:21:58.824Z,2.42
2022-11-26T13:25:05.370Z,0.57
2022-11-26T13:27:54.784Z,0.28
2022-11-26T13:30:31.601Z,0.35
2022-11-26T13:33:38.473Z,0.40
2022-11-26T13:36:47.447Z,0.50
2022-11-26T13:39:51.632Z,0.25
2022-11-26T13:42:47.514Z,0.40
2022-11-26T13:45:57.670Z,0.90
2022-11-26T13:48:35.674Z,0.45
2022-11-26T13:51:11.775Z,0.40
2022-11-26T13:53:47.239Z,0.28
2022-11-26T13:56:20.798Z,0.90
2022-11-26T13:58:55.661Z,0.70
2022-11-26T14:01:37.194Z,1.40
2022-11-26T14:04:09.896Z,0.30
2022-11-26T14:06:39.670Z,0.43
2022-11-26T14:09:09.160Z,0.73
2022-11-26T14:12:02.736Z,0.65
2022-11-26T14:14:37.002Z,0.30
2022-11-26T14:17:24.950Z,0.30
2022-11-26T14:20:10.456Z,0.40
2022-11-26T14:22:41.053Z,0.30
2022-11-26T14:25:14.745Z,0.30
2022-11-26T14:27:56.364Z,0.20
2022-11-26T14:30:29.336Z,0.25
2022-11-26T14:33:17.722Z,0.30
2022-11-26T14:35:57.549Z,0.93
2022-11-26T14:38:31.709Z,0.30
2022-11-26T14:41:03.028Z,0.20
2022-11-26T14:43:32.594Z,0.35
2022-11-26T14:46:12.789Z,0.20
2022-11-26T14:48:46.286Z,0.70
2022-11-26T14:51:23.225Z,0.82
2022-11-26T14:53:53.515Z,1.20
2022-11-26T14:56:26.030Z,0.28
2022-11-26T14:58:58.545Z,0.20
2022-11-26T15:01:32.600Z,0.35
2022-11-26T15:04:04.538Z,1.08
2022-11-26T15:06:38.729Z,0.60
2022-11-26T15:09:15.429Z,0.47
2022-11-26T15:11:49.976Z,1.33
2022-11-26T15:14:25.953Z,1.48
2022-11-26T15:17:00.598Z,1.05
2022-11-26T15:19:34.749Z,1.23
2022-11-26T15:22:08.717Z,1.85
2022-11-26T15:24:40.258Z,1.42
2022-11-26T15:27:30.469Z,1.58
2022-11-26T15:30:00.067Z,2.10
2022-11-26T15:32:33.039Z,1.88
2022-11-26T15:35:05.103Z,1.98
2022-11-26T15:37:34.450Z,1.90
2022-11-26T15:40:21.463Z,1.70
2022-11-26T15:42:53.553Z,0.82
2022-11-26T15:45:29.790Z,0.87
2022-11-26T15:48:00.767Z,0.70
2022-11-26T15:52:07.570Z,1.70
2022-11-26T15:55:11.011Z,3.10
2022-11-26T15:57:34.751Z,2.08
2022-11-26T16:00:09.948Z,2.20
2022-11-26T16:02:41.381Z,1.40
2022-11-26T16:05:28.985Z,3.45
2022-11-26T16:08:02.382Z,25.75
2022-11-26T16:10:35.694Z,9.10
2022-11-26T16:13:24.327Z,6.50
2022-11-26T16:16:01.118Z,1.45
2022-11-26T16:18:38.897Z,1.73
2022-11-26T16:21:17.162Z,2.63
2022-11-26T16:23:55.339Z,0.57
2022-11-26T16:26:25.115Z,0.25
2022-11-26T16:28:54.772Z,0.70
2022-11-26T16:31:24.999Z,0.73
2022-11-26T16:33:54.590Z,0.68
2022-11-26T16:36:28.441Z,1.42
2022-11-26T16:38:59.342Z,0.38
2022-11-26T16:41:29.079Z,0.28
2022-11-26T16:43:58.764Z,0.32
2022-11-26T16:46:28.324Z,0.30
2022-11-26T16:48:58.031Z,0.80
2022-11-26T16:51:27.536Z,0.30
2022-11-26T16:53:58.384Z,0.30
2022-11-26T16:56:33.054Z,0.35
2022-11-26T16:59:02.960Z,0.50
2022-11-26T17:01:33.518Z,0.82
2022-11-26T17:04:02.926Z,0.85
2022-11-26T17:06:36.169Z,0.20
2022-11-26T17:09:07.253Z,0.30
2022-11-26T17:11:36.591Z,0.47
2022-11-26T17:14:06.062Z,0.28
2022-11-26T17:16:36.089Z,0.20
2022-11-26T17:19:05.784Z,0.28
2022-11-26T17:21:35.295Z,0.17
2022-11-26T17:24:06.507Z,0.30
2022-11-26T17:26:36.058Z,0.60
2022-11-26T17:29:05.728Z,0.20
2022-11-26T17:31:35.247Z,0.22
2022-11-26T17:34:04.661Z,0.30
2022-11-26T17:36:36.849Z,0.38
2022-11-26T17:39:08.006Z,0.28
2022-11-26T17:41:37.468Z,0.57
2022-11-26T17:44:07.133Z,45.00
2022-11-26T17:46:54.492Z,1.55
2022-11-26T17:49:26.253Z,6.65
2022-11-26T17:51:55.730Z,2.85
2022-11-26T17:54:26.619Z,7.15
2022-11-26T17:56:56.016Z,9.82
2022-11-26T17:59:26.110Z,12.75
2022-11-26T18:01:55.917Z,17.75
2022-11-26T18:04:25.428Z,7.18
2022-11-26T18:07:05.493Z,7.70
2022-11-26T18:09:37.812Z,5.45
2022-11-26T18:12:10.932Z,4.07
2022-11-26T18:17:13.108Z,3.10
2022-11-26T18:19:43.932Z,1.35
2022-11-26T18:22:17.209Z,5.28
2022-11-26T18:24:56.869Z,3.50
2022-11-26T18:27:31.300Z,7.00
2022-11-26T18:30:00.759Z,6.20
2022-11-26T18:32:30.245Z,5.28
2022-11-26T18:34:59.786Z,5.53
2022-11-26T18:37:29.199Z,6.30
2022-11-26T18:40:00.099Z,5.55
2022-11-26T18:42:37.046Z,5.07
2022-11-26T18:45:09.426Z,2.05
2022-11-26T18:47:39.041Z,1.38
2022-11-26T18:52:03.679Z,3.13
2022-11-26T18:54:33.120Z,2.25
2022-11-26T18:57:02.722Z,1.98
2022-11-26T18:59:32.234Z,3.22
2022-11-26T19:02:01.762Z,8.55
2022-11-26T19:04:31.367Z,3.60
2022-11-26T19:07:02.443Z,2.58
2022-11-26T19:09:31.874Z,14.95
2022-11-26T19:12:01.401Z,4.55
2022-11-26T19:14:30.990Z,3.38
2022-11-26T19:17:00.722Z,1.95
2022-11-26T19:19:30.218Z,2.65
2022-11-26T19:22:01.664Z,7.00
2022-11-26T19:24:33.052Z,9.43
2022-11-26T19:27:02.440Z,11.02
2022-11-26T19:29:31.998Z,7.95
2022-11-26T19:32:01.519Z,2.65
2022-11-26T19:34:30.997Z,5.18
2022-11-26T19:37:00.358Z,3.20
2022-11-26T19:39:29.743Z,3.67
2022-11-26T19:42:00.571Z,5.40
2022-11-26T19:44:30.000Z,8.05
2022-11-26T19:46:59.561Z,19.42
2022-11-26T19:49:29.410Z,12.10
2022-11-26T19:51:59.202Z,7.85
2022-11-26T19:54:28.666Z,8.57
2022-11-26T19:56:59.475Z,11.48
2022-11-26T19:59:29.226Z,7.78
2022-11-26T20:01:58.958Z,4.90
2022-11-26T20:04:29.843Z,3.55
2022-11-26T20:06:59.793Z,4.47
2022-11-26T20:09:29.212Z,7.20
2022-11-26T20:12:00.105Z,7.18
2022-11-26T20:14:29.526Z,4.47
2022-11-26T20:17:01.081Z,2.80
2022-11-26T20:19:30.758Z,2.87
2022-11-26T20:22:00.164Z,2.30
2022-11-26T20:24:29.582Z,2.03
2022-11-26T20:27:00.520Z,2.22
2022-11-26T20:29:30.011Z,2.20
2022-11-26T20:31:59.394Z,2.50
2022-11-26T20:34:30.197Z,2.20
2022-11-26T20:36:59.648Z,1.60
2022-11-26T20:39:30.106Z,1.50
2022-11-26T20:42:01.042Z,1.38
2022-11-26T20:44:31.499Z,0.95
2022-11-26T20:47:00.955Z,2.08
2022-11-26T20:49:34.089Z,1.02
2022-11-26T20:52:06.699Z,1.73
2022-11-26T20:54:36.653Z,0.82
2022-11-26T20:57:07.497Z,1.13
2022-11-26T20:59:36.936Z,1.42
2022-11-26T21:02:06.634Z,1.95
2022-11-26T21:04:36.250Z,2.17
2022-11-26T21:07:06.005Z,5.28
2022-11-26T21:09:35.641Z,4.45
2022-11-26T21:12:06.922Z,2.67
2022-11-26T21:14:36.322Z,2.88
2022-11-26T21:17:05.838Z,0.70
2022-11-26T21:19:35.551Z,0.40
2022-11-26T21:22:04.916Z,0.98
2022-11-26T21:24:34.405Z,0.70
2022-11-26T21:27:05.647Z,0.93
2022-11-26T21:29:35.123Z,1.17
2022-11-26T21:32:04.670Z,1.00
2022-11-26T21:34:34.444Z,1.83
2022-11-26T21:37:03.902Z,2.90
2022-11-26T21:39:33.283Z,3.58
2022-11-26T21:42:02.727Z,3.92
2022-11-26T21:44:33.700Z,3.55
2022-11-26T21:47:04.046Z,2.90
2022-11-26T21:52:03.361Z,29.63
2022-11-26T21:54:32.704Z,16.67
2022-11-26T21:57:02.122Z,12.45
2022-11-26T21:59:31.689Z,8.63
2022-11-26T22:02:01.176Z,4.35
2022-11-26T22:04:30.555Z,2.22
2022-11-26T22:07:01.682Z,2.67
2022-11-26T22:09:31.216Z,2.47
2022-11-26T22:12:00.612Z,3.60
2022-11-26T22:14:30.057Z,4.15
2022-11-26T22:16:59.659Z,4.47
2022-11-26T22:19:29.123Z,4.07
2022-11-26T22:21:58.604Z,3.45
2022-11-26T22:24:29.506Z,2.30
2022-11-26T22:26:59.523Z,2.22
2022-11-26T22:29:28.903Z,1.55
2022-11-26T22:31:58.533Z,255.15
2022-11-26T22:34:29.320Z,251.93
2022-11-26T22:36:58.967Z,190.70
2022-11-26T22:39:32.106Z,75.15
2022-11-26T22:42:02.033Z,80.03
2022-11-26T22:44:31.462Z,70.50
2022-11-26T22:47:00.896Z,38.35
2022-11-26T22:49:30.406Z,25.95
2022-11-26T22:51:59.828Z,28.85
2022-11-26T22:54:30.754Z,22.58
2022-11-26T22:57:00.252Z,17.13
2022-11-26T22:59:29.875Z,24.10
2022-11-26T23:01:59.684Z,8.63
2022-11-26T23:04:29.284Z,6.30
2022-11-26T23:06:58.781Z,9.90
2022-11-26T23:09:29.644Z,12.07
2022-11-26T23:12:00.062Z,11.13
2022-11-26T23:14:29.668Z,8.20
2022-11-26T23:16:59.180Z,9.32
2022-11-26T23:19:28.665Z,12.00
2022-11-26T23:21:58.089Z,13.25
2022-11-26T23:24:30.286Z,11.18
2022-11-26T23:27:01.203Z,8.95
2022-11-26T23:29:30.824Z,8.98
2022-11-26T23:32:00.322Z,11.85
2022-11-26T23:34:29.808Z,11.32
2022-11-26T23:36:59.358Z,10.23
2022-11-26T23:39:28.891Z,9.00
2022-11-26T23:41:59.729Z,8.80
2022-11-26T23:44:29.256Z,8.05
2022-11-26T23:46:58.487Z,7.95
2022-11-26T23:49:27.970Z,7.72
2022-11-26T23:51:57.973Z,8.57
2022-11-26T23:54:27.888Z,8.10
2022-11-26T23:56:57.302Z,8.27
2022-11-26T23:59:28.332Z,7.88
